sensor_id;sensor_type;location;lat;lon;timestamp;P1;durP1;ratioP1;P2;durP2;ratioP2
22907;SDS011;11620;50.050;8.690;2022-10-17T00:00:01;0.50;;;0.50;;
22907;SDS011;11620;50.050;8.690;2022-10-17T00:02:56;0.52;;;0.52;;
22907;SDS011;11620;50.050;8.690;2022-10-17T00:05:45;0.50;;;0.50;;
22907;SDS011;11620;50.050;8.690;2022-10-17T00:08:35;0.55;;;0.55;;
22907;SDS011;11620;50.050;8.690;2022-10-17T00:11:25;0.40;;;0.40;;
22907;SDS011;11620;50.050;8.690;2022-10-17T00:14:15;0.55;;;0.55;;
22907;SDS011;11620;50.050;8.690;2022-10-17T00:17:01;0.70;;;0.70;;
22907;SDS011;11620;50.050;8.690;2022-10-17T00:19:50;0.50;;;0.50;;
22907;SDS011;11620;50.050;8.690;2022-10-17T00:22:56;0.50;;;0.50;;
22907;SDS011;11620;50.050;8.690;2022-10-17T00:29:26;0.57;;;0.57;;
22907;SDS011;11620;50.050;8.690;2022-10-17T00:32:12;0.50;;;0.50;;
22907;SDS011;11620;50.050;8.690;2022-10-17T00:35:08;0.50;;;0.50;;
22907;SDS011;11620;50.050;8.690;2022-10-17T00:37:54;0.55;;;0.55;;
22907;SDS011;11620;50.050;8.690;2022-10-17T00:40:41;0.70;;;0.70;;
22907;SDS011;11620;50.050;8.690;2022-10-17T00:43:27;0.60;;;0.60;;
22907;SDS011;11620;50.050;8.690;2022-10-17T00:46:14;0.60;;;0.60;;
22907;SDS011;11620;50.050;8.690;2022-10-17T00:49:02;0.55;;;0.55;;
22907;SDS011;11620;50.050;8.690;2022-10-17T00:52:04;0.63;;;0.63;;
22907;SDS011;11620;50.050;8.690;2022-10-17T00:54:58;0.60;;;0.60;;
22907;SDS011;11620;50.050;8.690;2022-10-17T00:57:48;0.68;;;0.68;;
22907;SDS011;11620;50.050;8.690;2022-10-17T01:00:39;0.47;;;0.47;;
22907;SDS011;11620;50.050;8.690;2022-10-17T01:03:28;0.50;;;0.50;;
22907;SDS011;11620;50.050;8.690;2022-10-17T01:06:15;0.55;;;0.55;;
22907;SDS011;11620;50.050;8.690;2022-10-17T01:09:01;0.50;;;0.50;;
22907;SDS011;11620;50.050;8.690;2022-10-17T01:11:54;0.50;;;0.50;;
22907;SDS011;11620;50.050;8.690;2022-10-17T01:24:39;0.50;;;0.50;;
22907;SDS011;11620;50.050;8.690;2022-10-17T01:27:51;0.60;;;0.60;;
22907;SDS011;11620;50.050;8.690;2022-10-17T01:34:15;0.50;;;0.50;;
22907;SDS011;11620;50.050;8.690;2022-10-17T01:37:30;0.60;;;0.60;;
22907;SDS011;11620;50.050;8.690;2022-10-17T01:40:21;0.60;;;0.60;;
22907;SDS011;11620;50.050;8.690;2022-10-17T01:43:40;0.60;;;0.60;;
22907;SDS011;11620;50.050;8.690;2022-10-17T01:46:45;0.57;;;0.57;;
22907;SDS011;11620;50.050;8.690;2022-10-17T01:49:48;0.52;;;0.52;;
22907;SDS011;11620;50.050;8.690;2022-10-17T01:52:41;0.60;;;0.60;;
22907;SDS011;11620;50.050;8.690;2022-10-17T01:55:36;0.60;;;0.60;;
22907;SDS011;11620;50.050;8.690;2022-10-17T02:02:07;0.60;;;0.60;;
22907;SDS011;11620;50.050;8.690;2022-10-17T02:05:10;0.60;;;0.60;;
22907;SDS011;11620;50.050;8.690;2022-10-17T02:08:06;0.68;;;0.68;;
22907;SDS011;11620;50.050;8.690;2022-10-17T02:10:54;0.70;;;0.70;;
22907;SDS011;11620;50.050;8.690;2022-10-17T02:20:27;0.55;;;0.55;;
22907;SDS011;11620;50.050;8.690;2022-10-17T02:26:54;0.50;;;0.50;;
22907;SDS011;11620;50.050;8.690;2022-10-17T02:30:15;0.57;;;0.57;;
22907;SDS011;11620;50.050;8.690;2022-10-17T02:33:38;0.65;;;0.65;;
22907;SDS011;11620;50.050;8.690;2022-10-17T02:36:31;0.60;;;0.60;;
22907;SDS011;11620;50.050;8.690;2022-10-17T02:39:24;0.70;;;0.70;;
22907;SDS011;11620;50.050;8.690;2022-10-17T02:42:12;0.60;;;0.60;;
22907;SDS011;11620;50.050;8.690;2022-10-17T02:45:00;0.60;;;0.60;;
22907;SDS011;11620;50.050;8.690;2022-10-17T02:51:01;0.60;;;0.60;;
22907;SDS011;11620;50.050;8.690;2022-10-17T02:56:47;0.60;;;0.60;;
22907;SDS011;11620;50.050;8.690;2022-10-17T02:59:38;0.60;;;0.60;;
22907;SDS011;11620;50.050;8.690;2022-10-17T03:02:26;0.63;;;0.63;;
22907;SDS011;11620;50.050;8.690;2022-10-17T03:05:15;0.50;;;0.50;;
22907;SDS011;11620;50.050;8.690;2022-10-17T03:08:03;0.68;;;0.68;;
22907;SDS011;11620;50.050;8.690;2022-10-17T03:10:50;0.70;;;0.70;;
22907;SDS011;11620;50.050;8.690;2022-10-17T03:13:36;0.60;;;0.60;;
22907;SDS011;11620;50.050;8.690;2022-10-17T03:16:25;0.60;;;0.60;;
22907;SDS011;11620;50.050;8.690;2022-10-17T03:19:12;0.63;;;0.63;;
22907;SDS011;11620;50.050;8.690;2022-10-17T03:21:58;0.50;;;0.50;;
22907;SDS011;11620;50.050;8.690;2022-10-17T03:24:44;0.70;;;0.70;;
22907;SDS011;11620;50.050;8.690;2022-10-17T03:27:31;0.77;;;0.77;;
22907;SDS011;11620;50.050;8.690;2022-10-17T03:30:17;0.50;;;0.50;;
22907;SDS011;11620;50.050;8.690;2022-10-17T03:33:07;0.63;;;0.63;;
22907;SDS011;11620;50.050;8.690;2022-10-17T03:35:53;0.60;;;0.60;;
22907;SDS011;11620;50.050;8.690;2022-10-17T03:38:40;0.52;;;0.52;;
22907;SDS011;11620;50.050;8.690;2022-10-17T03:41:27;0.70;;;0.70;;
22907;SDS011;11620;50.050;8.690;2022-10-17T03:44:14;0.63;;;0.63;;
22907;SDS011;11620;50.050;8.690;2022-10-17T03:47:00;0.70;;;0.70;;
22907;SDS011;11620;50.050;8.690;2022-10-17T03:49:46;0.60;;;0.60;;
22907;SDS011;11620;50.050;8.690;2022-10-17T03:52:33;0.50;;;0.50;;
22907;SDS011;11620;50.050;8.690;2022-10-17T03:55:19;0.60;;;0.60;;
22907;SDS011;11620;50.050;8.690;2022-10-17T03:58:05;0.65;;;0.65;;
22907;SDS011;11620;50.050;8.690;2022-10-17T04:00:52;0.60;;;0.60;;
22907;SDS011;11620;50.050;8.690;2022-10-17T04:03:38;0.65;;;0.65;;
22907;SDS011;11620;50.050;8.690;2022-10-17T04:06:25;0.60;;;0.60;;
22907;SDS011;11620;50.050;8.690;2022-10-17T04:09:11;0.60;;;0.60;;
22907;SDS011;11620;50.050;8.690;2022-10-17T04:11:58;0.70;;;0.70;;
22907;SDS011;11620;50.050;8.690;2022-10-17T04:14:45;0.70;;;0.70;;
22907;SDS011;11620;50.050;8.690;2022-10-17T04:17:31;0.70;;;0.70;;
22907;SDS011;11620;50.050;8.690;2022-10-17T04:20:20;0.60;;;0.60;;
22907;SDS011;11620;50.050;8.690;2022-10-17T04:23:06;0.65;;;0.65;;
22907;SDS011;11620;50.050;8.690;2022-10-17T04:25:56;0.60;;;0.60;;
22907;SDS011;11620;50.050;8.690;2022-10-17T04:28:43;0.60;;;0.60;;
22907;SDS011;11620;50.050;8.690;2022-10-17T04:31:32;0.63;;;0.63;;
22907;SDS011;11620;50.050;8.690;2022-10-17T04:34:19;0.60;;;0.60;;
22907;SDS011;11620;50.050;8.690;2022-10-17T04:37:05;0.60;;;0.60;;
22907;SDS011;11620;50.050;8.690;2022-10-17T04:40:03;0.70;;;0.70;;
22907;SDS011;11620;50.050;8.690;2022-10-17T04:42:50;0.60;;;0.60;;
22907;SDS011;11620;50.050;8.690;2022-10-17T04:45:44;0.60;;;0.60;;
22907;SDS011;11620;50.050;8.690;2022-10-17T04:48:40;0.68;;;0.68;;
22907;SDS011;11620;50.050;8.690;2022-10-17T04:51:37;0.70;;;0.70;;
22907;SDS011;11620;50.050;8.690;2022-10-17T04:54:23;0.60;;;0.60;;
22907;SDS011;11620;50.050;8.690;2022-10-17T04:57:16;0.70;;;0.70;;
22907;SDS011;11620;50.050;8.690;2022-10-17T05:00:12;0.60;;;0.60;;
22907;SDS011;11620;50.050;8.690;2022-10-17T05:02:58;0.60;;;0.60;;
22907;SDS011;11620;50.050;8.690;2022-10-17T05:05:45;0.60;;;0.60;;
22907;SDS011;11620;50.050;8.690;2022-10-17T05:08:31;0.68;;;0.68;;
22907;SDS011;11620;50.050;8.690;2022-10-17T05:11:27;0.60;;;0.60;;
22907;SDS011;11620;50.050;8.690;2022-10-17T05:14:14;0.70;;;0.70;;
22907;SDS011;11620;50.050;8.690;2022-10-17T05:17:01;0.60;;;0.60;;
22907;SDS011;11620;50.050;8.690;2022-10-17T05:19:47;0.70;;;0.70;;
22907;SDS011;11620;50.050;8.690;2022-10-17T05:22:34;0.60;;;0.60;;
22907;SDS011;11620;50.050;8.690;2022-10-17T05:25:20;0.50;;;0.50;;
22907;SDS011;11620;50.050;8.690;2022-10-17T05:28:06;0.63;;;0.63;;
22907;SDS011;11620;50.050;8.690;2022-10-17T05:30:53;0.60;;;0.60;;
22907;SDS011;11620;50.050;8.690;2022-10-17T05:33:39;0.50;;;0.50;;
22907;SDS011;11620;50.050;8.690;2022-10-17T05:36:25;0.50;;;0.50;;
22907;SDS011;11620;50.050;8.690;2022-10-17T05:39:12;0.60;;;0.60;;
22907;SDS011;11620;50.050;8.690;2022-10-17T05:41:59;0.60;;;0.60;;
22907;SDS011;11620;50.050;8.690;2022-10-17T05:44:46;0.60;;;0.60;;
22907;SDS011;11620;50.050;8.690;2022-10-17T05:47:32;0.50;;;0.50;;
22907;SDS011;11620;50.050;8.690;2022-10-17T05:50:18;0.50;;;0.50;;
22907;SDS011;11620;50.050;8.690;2022-10-17T05:53:06;0.70;;;0.70;;
22907;SDS011;11620;50.050;8.690;2022-10-17T05:55:57;0.60;;;0.60;;
22907;SDS011;11620;50.050;8.690;2022-10-17T05:58:44;0.60;;;0.60;;
22907;SDS011;11620;50.050;8.690;2022-10-17T06:01:32;0.50;;;0.50;;
22907;SDS011;11620;50.050;8.690;2022-10-17T06:04:18;0.60;;;0.60;;
22907;SDS011;11620;50.050;8.690;2022-10-17T06:07:04;0.60;;;0.60;;
22907;SDS011;11620;50.050;8.690;2022-10-17T06:09:51;0.60;;;0.60;;
22907;SDS011;11620;50.050;8.690;2022-10-17T06:12:37;0.60;;;0.60;;
22907;SDS011;11620;50.050;8.690;2022-10-17T06:15:24;0.57;;;0.57;;
22907;SDS011;11620;50.050;8.690;2022-10-17T06:18:10;0.60;;;0.60;;
22907;SDS011;11620;50.050;8.690;2022-10-17T06:21:01;0.60;;;0.60;;
22907;SDS011;11620;50.050;8.690;2022-10-17T06:23:51;0.60;;;0.60;;
22907;SDS011;11620;50.050;8.690;2022-10-17T06:26:38;0.50;;;0.50;;
22907;SDS011;11620;50.050;8.690;2022-10-17T06:29:24;0.45;;;0.45;;
22907;SDS011;11620;50.050;8.690;2022-10-17T06:32:10;0.70;;;0.70;;
22907;SDS011;11620;50.050;8.690;2022-10-17T06:34:57;0.60;;;0.60;;
22907;SDS011;11620;50.050;8.690;2022-10-17T06:37:43;0.60;;;0.60;;
22907;SDS011;11620;50.050;8.690;2022-10-17T06:40:29;0.70;;;0.70;;
22907;SDS011;11620;50.050;8.690;2022-10-17T06:43:16;0.60;;;0.60;;
22907;SDS011;11620;50.050;8.690;2022-10-17T06:46:03;0.60;;;0.60;;
22907;SDS011;11620;50.050;8.690;2022-10-17T06:48:49;0.52;;;0.52;;
22907;SDS011;11620;50.050;8.690;2022-10-17T06:51:36;0.60;;;0.60;;
22907;SDS011;11620;50.050;8.690;2022-10-17T06:54:22;0.60;;;0.60;;
22907;SDS011;11620;50.050;8.690;2022-10-17T06:57:09;0.60;;;0.60;;
22907;SDS011;11620;50.050;8.690;2022-10-17T06:59:55;0.70;;;0.70;;
22907;SDS011;11620;50.050;8.690;2022-10-17T07:02:42;0.50;;;0.50;;
22907;SDS011;11620;50.050;8.690;2022-10-17T07:05:28;0.60;;;0.60;;
22907;SDS011;11620;50.050;8.690;2022-10-17T07:08:15;0.60;;;0.60;;
22907;SDS011;11620;50.050;8.690;2022-10-17T07:11:08;0.60;;;0.60;;
22907;SDS011;11620;50.050;8.690;2022-10-17T07:13:55;0.60;;;0.60;;
22907;SDS011;11620;50.050;8.690;2022-10-17T07:16:42;0.63;;;0.63;;
22907;SDS011;11620;50.050;8.690;2022-10-17T07:19:28;0.70;;;0.70;;
22907;SDS011;11620;50.050;8.690;2022-10-17T07:22:15;0.70;;;0.70;;
22907;SDS011;11620;50.050;8.690;2022-10-17T07:25:02;0.60;;;0.60;;
22907;SDS011;11620;50.050;8.690;2022-10-17T07:27:49;0.73;;;0.73;;
22907;SDS011;11620;50.050;8.690;2022-10-17T07:30:36;0.70;;;0.70;;
22907;SDS011;11620;50.050;8.690;2022-10-17T07:33:23;0.63;;;0.63;;
22907;SDS011;11620;50.050;8.690;2022-10-17T07:36:09;0.70;;;0.70;;
22907;SDS011;11620;50.050;8.690;2022-10-17T07:38:56;0.60;;;0.60;;
22907;SDS011;11620;50.050;8.690;2022-10-17T07:41:42;0.65;;;0.65;;
22907;SDS011;11620;50.050;8.690;2022-10-17T07:44:29;0.70;;;0.70;;
22907;SDS011;11620;50.050;8.690;2022-10-17T07:47:15;0.70;;;0.70;;
22907;SDS011;11620;50.050;8.690;2022-10-17T07:50:02;0.73;;;0.73;;
22907;SDS011;11620;50.050;8.690;2022-10-17T07:52:49;0.65;;;0.65;;
22907;SDS011;11620;50.050;8.690;2022-10-17T07:55:36;0.70;;;0.70;;
22907;SDS011;11620;50.050;8.690;2022-10-17T07:58:23;0.70;;;0.70;;
22907;SDS011;11620;50.050;8.690;2022-10-17T08:01:10;0.77;;;0.77;;
22907;SDS011;11620;50.050;8.690;2022-10-17T08:03:59;0.60;;;0.60;;
22907;SDS011;11620;50.050;8.690;2022-10-17T08:06:45;0.60;;;0.60;;
22907;SDS011;11620;50.050;8.690;2022-10-17T08:09:31;0.73;;;0.73;;
22907;SDS011;11620;50.050;8.690;2022-10-17T08:12:18;0.60;;;0.60;;
22907;SDS011;11620;50.050;8.690;2022-10-17T08:15:05;0.55;;;0.55;;
22907;SDS011;11620;50.050;8.690;2022-10-17T08:17:52;0.50;;;0.50;;
22907;SDS011;11620;50.050;8.690;2022-10-17T08:20:40;0.60;;;0.60;;
22907;SDS011;11620;50.050;8.690;2022-10-17T08:23:27;0.70;;;0.70;;
22907;SDS011;11620;50.050;8.690;2022-10-17T08:26:13;0.60;;;0.60;;
22907;SDS011;11620;50.050;8.690;2022-10-17T08:29:02;0.70;;;0.70;;
22907;SDS011;11620;50.050;8.690;2022-10-17T08:31:48;0.60;;;0.60;;
22907;SDS011;11620;50.050;8.690;2022-10-17T08:34:35;0.57;;;0.57;;
22907;SDS011;11620;50.050;8.690;2022-10-17T08:37:21;0.50;;;0.50;;
22907;SDS011;11620;50.050;8.690;2022-10-17T08:40:10;0.47;;;0.47;;
22907;SDS011;11620;50.050;8.690;2022-10-17T08:43:25;0.60;;;0.60;;
22907;SDS011;11620;50.050;8.690;2022-10-17T08:46:34;0.60;;;0.60;;
22907;SDS011;11620;50.050;8.690;2022-10-17T08:49:36;0.70;;;0.70;;
22907;SDS011;11620;50.050;8.690;2022-10-17T08:55:28;0.50;;;0.50;;
22907;SDS011;11620;50.050;8.690;2022-10-17T08:58:29;0.60;;;0.60;;
22907;SDS011;11620;50.050;8.690;2022-10-17T09:07:33;0.60;;;0.60;;
22907;SDS011;11620;50.050;8.690;2022-10-17T09:10:28;0.70;;;0.70;;
22907;SDS011;11620;50.050;8.690;2022-10-17T09:13:47;0.50;;;0.50;;
22907;SDS011;11620;50.050;8.690;2022-10-17T09:22:56;0.50;;;0.50;;
22907;SDS011;11620;50.050;8.690;2022-10-17T09:25:46;0.60;;;0.60;;
22907;SDS011;11620;50.050;8.690;2022-10-17T09:28:41;0.60;;;0.60;;
22907;SDS011;11620;50.050;8.690;2022-10-17T09:31:29;0.80;;;0.80;;
22907;SDS011;11620;50.050;8.690;2022-10-17T09:34:20;0.50;;;0.50;;
22907;SDS011;11620;50.050;8.690;2022-10-17T09:37:11;0.70;;;0.70;;
22907;SDS011;11620;50.050;8.690;2022-10-17T09:40:00;0.60;;;0.60;;
22907;SDS011;11620;50.050;8.690;2022-10-17T09:42:46;0.50;;;0.50;;
22907;SDS011;11620;50.050;8.690;2022-10-17T09:45:37;0.47;;;0.47;;
22907;SDS011;11620;50.050;8.690;2022-10-17T09:48:39;0.63;;;0.63;;
22907;SDS011;11620;50.050;8.690;2022-10-17T09:51:33;0.60;;;0.60;;
22907;SDS011;11620;50.050;8.690;2022-10-17T09:54:23;0.40;;;0.40;;
22907;SDS011;11620;50.050;8.690;2022-10-17T09:57:13;0.50;;;0.50;;
22907;SDS011;11620;50.050;8.690;2022-10-17T10:00:01;0.50;;;0.50;;
22907;SDS011;11620;50.050;8.690;2022-10-17T10:02:50;0.50;;;0.50;;
22907;SDS011;11620;50.050;8.690;2022-10-17T10:06:00;0.50;;;0.50;;
22907;SDS011;11620;50.050;8.690;2022-10-17T10:11:46;0.50;;;0.50;;
22907;SDS011;11620;50.050;8.690;2022-10-17T10:14:35;0.40;;;0.40;;
22907;SDS011;11620;50.050;8.690;2022-10-17T10:20:33;0.45;;;0.45;;
22907;SDS011;11620;50.050;8.690;2022-10-17T10:23:22;0.47;;;0.47;;
22907;SDS011;11620;50.050;8.690;2022-10-17T10:32:34;0.50;;;0.50;;
22907;SDS011;11620;50.050;8.690;2022-10-17T10:38:19;0.70;;;0.70;;
22907;SDS011;11620;50.050;8.690;2022-10-17T10:41:06;0.40;;;0.40;;
22907;SDS011;11620;50.050;8.690;2022-10-17T10:43:54;0.30;;;0.30;;
22907;SDS011;11620;50.050;8.690;2022-10-17T10:46:41;0.40;;;0.40;;
22907;SDS011;11620;50.050;8.690;2022-10-17T10:49:28;0.50;;;0.50;;
22907;SDS011;11620;50.050;8.690;2022-10-17T10:52:31;0.40;;;0.40;;
22907;SDS011;11620;50.050;8.690;2022-10-17T10:55:41;0.60;;;0.60;;
22907;SDS011;11620;50.050;8.690;2022-10-17T11:01:24;0.52;;;0.52;;
22907;SDS011;11620;50.050;8.690;2022-10-17T11:04:19;0.50;;;0.50;;
22907;SDS011;11620;50.050;8.690;2022-10-17T11:07:24;0.50;;;0.50;;
22907;SDS011;11620;50.050;8.690;2022-10-17T11:13:18;0.50;;;0.50;;
22907;SDS011;11620;50.050;8.690;2022-10-17T11:16:20;0.50;;;0.50;;
22907;SDS011;11620;50.050;8.690;2022-10-17T11:25:35;0.40;;;0.40;;
22907;SDS011;11620;50.050;8.690;2022-10-17T11:28:23;0.50;;;0.50;;
22907;SDS011;11620;50.050;8.690;2022-10-17T11:31:13;0.50;;;0.50;;
22907;SDS011;11620;50.050;8.690;2022-10-17T11:34:04;0.43;;;0.43;;
22907;SDS011;11620;50.050;8.690;2022-10-17T11:37:05;0.50;;;0.50;;
22907;SDS011;11620;50.050;8.690;2022-10-17T11:40:05;0.40;;;0.40;;
22907;SDS011;11620;50.050;8.690;2022-10-17T11:42:58;0.50;;;0.50;;
22907;SDS011;11620;50.050;8.690;2022-10-17T11:45:47;0.52;;;0.52;;
22907;SDS011;11620;50.050;8.690;2022-10-17T11:48:51;0.60;;;0.60;;
22907;SDS011;11620;50.050;8.690;2022-10-17T11:51:53;0.55;;;0.55;;
22907;SDS011;11620;50.050;8.690;2022-10-17T11:54:53;0.38;;;0.38;;
22907;SDS011;11620;50.050;8.690;2022-10-17T11:58:49;0.43;;;0.43;;
22907;SDS011;11620;50.050;8.690;2022-10-17T12:01:30;0.50;;;0.50;;
22907;SDS011;11620;50.050;8.690;2022-10-17T12:10:40;0.60;;;0.60;;
22907;SDS011;11620;50.050;8.690;2022-10-17T12:19:20;0.40;;;0.40;;
22907;SDS011;11620;50.050;8.690;2022-10-17T12:25:15;0.50;;;0.50;;
22907;SDS011;11620;50.050;8.690;2022-10-17T12:31:29;0.60;;;0.60;;
22907;SDS011;11620;50.050;8.690;2022-10-17T12:34:15;0.50;;;0.50;;
22907;SDS011;11620;50.050;8.690;2022-10-17T12:37:09;0.50;;;0.50;;
22907;SDS011;11620;50.050;8.690;2022-10-17T12:39:56;0.50;;;0.50;;
22907;SDS011;11620;50.050;8.690;2022-10-17T12:42:46;0.50;;;0.50;;
22907;SDS011;11620;50.050;8.690;2022-10-17T12:45:47;0.30;;;0.30;;
22907;SDS011;11620;50.050;8.690;2022-10-17T12:51:26;0.50;;;0.50;;
22907;SDS011;11620;50.050;8.690;2022-10-17T12:54:14;0.43;;;0.43;;
22907;SDS011;11620;50.050;8.690;2022-10-17T12:57:01;0.43;;;0.43;;
22907;SDS011;11620;50.050;8.690;2022-10-17T12:59:47;0.30;;;0.30;;
22907;SDS011;11620;50.050;8.690;2022-10-17T13:02:34;0.40;;;0.40;;
22907;SDS011;11620;50.050;8.690;2022-10-17T13:05:26;0.40;;;0.40;;
22907;SDS011;11620;50.050;8.690;2022-10-17T13:08:19;0.45;;;0.45;;
22907;SDS011;11620;50.050;8.690;2022-10-17T13:11:12;0.40;;;0.40;;
22907;SDS011;11620;50.050;8.690;2022-10-17T13:14:03;0.40;;;0.40;;
22907;SDS011;11620;50.050;8.690;2022-10-17T13:17:29;0.47;;;0.47;;
22907;SDS011;11620;50.050;8.690;2022-10-17T13:20:17;0.50;;;0.50;;
22907;SDS011;11620;50.050;8.690;2022-10-17T13:23:19;0.47;;;0.47;;
22907;SDS011;11620;50.050;8.690;2022-10-17T13:29:09;0.40;;;0.40;;
22907;SDS011;11620;50.050;8.690;2022-10-17T13:31:58;0.43;;;0.43;;
22907;SDS011;11620;50.050;8.690;2022-10-17T13:35:04;0.47;;;0.47;;
22907;SDS011;11620;50.050;8.690;2022-10-17T13:37:54;0.50;;;0.50;;
22907;SDS011;11620;50.050;8.690;2022-10-17T13:40:42;0.50;;;0.50;;
22907;SDS011;11620;50.050;8.690;2022-10-17T13:43:32;0.40;;;0.40;;
22907;SDS011;11620;50.050;8.690;2022-10-17T13:46:25;0.50;;;0.50;;
22907;SDS011;11620;50.050;8.690;2022-10-17T13:49:24;0.43;;;0.43;;
22907;SDS011;11620;50.050;8.690;2022-10-17T13:52:19;0.40;;;0.40;;
22907;SDS011;11620;50.050;8.690;2022-10-17T13:55:11;0.50;;;0.50;;
22907;SDS011;11620;50.050;8.690;2022-10-17T13:58:13;0.50;;;0.50;;
22907;SDS011;11620;50.050;8.690;2022-10-17T14:01:01;0.45;;;0.45;;
22907;SDS011;11620;50.050;8.690;2022-10-17T14:03:54;0.40;;;0.40;;
22907;SDS011;11620;50.050;8.690;2022-10-17T14:06:44;0.40;;;0.40;;
22907;SDS011;11620;50.050;8.690;2022-10-17T14:09:31;0.40;;;0.40;;
22907;SDS011;11620;50.050;8.690;2022-10-17T14:12:18;0.50;;;0.50;;
22907;SDS011;11620;50.050;8.690;2022-10-17T14:15:08;0.35;;;0.35;;
22907;SDS011;11620;50.050;8.690;2022-10-17T14:18:02;0.40;;;0.40;;
22907;SDS011;11620;50.050;8.690;2022-10-17T14:20:49;0.50;;;0.50;;
22907;SDS011;11620;50.050;8.690;2022-10-17T14:23:41;0.50;;;0.50;;
22907;SDS011;11620;50.050;8.690;2022-10-17T14:26:28;0.50;;;0.50;;
22907;SDS011;11620;50.050;8.690;2022-10-17T14:32:12;0.47;;;0.47;;
22907;SDS011;11620;50.050;8.690;2022-10-17T14:35:00;0.40;;;0.40;;
22907;SDS011;11620;50.050;8.690;2022-10-17T14:37:49;0.40;;;0.40;;
22907;SDS011;11620;50.050;8.690;2022-10-17T14:40:47;0.28;;;0.28;;
22907;SDS011;11620;50.050;8.690;2022-10-17T14:43:45;0.30;;;0.30;;
22907;SDS011;11620;50.050;8.690;2022-10-17T14:46:43;0.40;;;0.40;;
22907;SDS011;11620;50.050;8.690;2022-10-17T14:49:32;0.30;;;0.30;;
22907;SDS011;11620;50.050;8.690;2022-10-17T14:52:25;0.30;;;0.30;;
22907;SDS011;11620;50.050;8.690;2022-10-17T14:55:19;0.30;;;0.30;;
22907;SDS011;11620;50.050;8.690;2022-10-17T14:58:15;0.20;;;0.20;;
22907;SDS011;11620;50.050;8.690;2022-10-17T15:01:03;0.30;;;0.30;;
22907;SDS011;11620;50.050;8.690;2022-10-17T15:03:49;0.40;;;0.40;;
22907;SDS011;11620;50.050;8.690;2022-10-17T15:06:39;0.40;;;0.40;;
22907;SDS011;11620;50.050;8.690;2022-10-17T15:09:25;0.28;;;0.28;;
22907;SDS011;11620;50.050;8.690;2022-10-17T15:12:18;0.30;;;0.30;;
22907;SDS011;11620;50.050;8.690;2022-10-17T15:15:12;0.50;;;0.50;;
22907;SDS011;11620;50.050;8.690;2022-10-17T15:18:01;0.30;;;0.30;;
22907;SDS011;11620;50.050;8.690;2022-10-17T15:20:56;0.32;;;0.32;;
22907;SDS011;11620;50.050;8.690;2022-10-17T15:23:54;0.40;;;0.40;;
22907;SDS011;11620;50.050;8.690;2022-10-17T15:26:41;0.28;;;0.28;;
22907;SDS011;11620;50.050;8.690;2022-10-17T15:29:29;0.40;;;0.40;;
22907;SDS011;11620;50.050;8.690;2022-10-17T15:32:28;0.20;;;0.20;;
22907;SDS011;11620;50.050;8.690;2022-10-17T15:35:14;0.40;;;0.40;;
22907;SDS011;11620;50.050;8.690;2022-10-17T15:38:02;0.30;;;0.30;;
22907;SDS011;11620;50.050;8.690;2022-10-17T15:40:51;0.43;;;0.43;;
22907;SDS011;11620;50.050;8.690;2022-10-17T15:43:38;0.50;;;0.50;;
22907;SDS011;11620;50.050;8.690;2022-10-17T15:46:25;0.38;;;0.38;;
22907;SDS011;11620;50.050;8.690;2022-10-17T15:49:17;0.43;;;0.43;;
22907;SDS011;11620;50.050;8.690;2022-10-17T15:52:04;0.40;;;0.40;;
22907;SDS011;11620;50.050;8.690;2022-10-17T15:54:51;0.30;;;0.30;;
22907;SDS011;11620;50.050;8.690;2022-10-17T15:57:39;0.30;;;0.30;;
22907;SDS011;11620;50.050;8.690;2022-10-17T16:00:28;0.30;;;0.30;;
22907;SDS011;11620;50.050;8.690;2022-10-17T16:03:14;0.40;;;0.40;;
22907;SDS011;11620;50.050;8.690;2022-10-17T16:06:00;0.40;;;0.40;;
22907;SDS011;11620;50.050;8.690;2022-10-17T16:08:47;0.30;;;0.30;;
22907;SDS011;11620;50.050;8.690;2022-10-17T16:11:35;0.30;;;0.30;;
22907;SDS011;11620;50.050;8.690;2022-10-17T16:14:27;0.40;;;0.40;;
22907;SDS011;11620;50.050;8.690;2022-10-17T16:17:13;0.40;;;0.40;;
22907;SDS011;11620;50.050;8.690;2022-10-17T16:20:01;0.32;;;0.32;;
22907;SDS011;11620;50.050;8.690;2022-10-17T16:22:47;0.38;;;0.38;;
22907;SDS011;11620;50.050;8.690;2022-10-17T16:25:34;0.38;;;0.38;;
22907;SDS011;11620;50.050;8.690;2022-10-17T16:28:21;0.38;;;0.38;;
22907;SDS011;11620;50.050;8.690;2022-10-17T16:31:20;0.35;;;0.35;;
22907;SDS011;11620;50.050;8.690;2022-10-17T16:34:10;0.40;;;0.40;;
22907;SDS011;11620;50.050;8.690;2022-10-17T16:36:58;0.40;;;0.40;;
22907;SDS011;11620;50.050;8.690;2022-10-17T16:39:44;0.40;;;0.40;;
22907;SDS011;11620;50.050;8.690;2022-10-17T16:42:36;0.30;;;0.30;;
22907;SDS011;11620;50.050;8.690;2022-10-17T16:45:26;0.30;;;0.30;;
22907;SDS011;11620;50.050;8.690;2022-10-17T16:51:36;0.30;;;0.30;;
22907;SDS011;11620;50.050;8.690;2022-10-17T16:54:22;0.25;;;0.25;;
22907;SDS011;11620;50.050;8.690;2022-10-17T16:57:08;0.30;;;0.30;;
22907;SDS011;11620;50.050;8.690;2022-10-17T16:59:55;0.30;;;0.30;;
22907;SDS011;11620;50.050;8.690;2022-10-17T17:06:00;0.40;;;0.40;;
22907;SDS011;11620;50.050;8.690;2022-10-17T17:08:46;0.40;;;0.40;;
22907;SDS011;11620;50.050;8.690;2022-10-17T17:11:33;0.30;;;0.30;;
22907;SDS011;11620;50.050;8.690;2022-10-17T17:14:20;0.30;;;0.30;;
22907;SDS011;11620;50.050;8.690;2022-10-17T17:17:06;0.30;;;0.30;;
22907;SDS011;11620;50.050;8.690;2022-10-17T17:19:52;0.20;;;0.20;;
22907;SDS011;11620;50.050;8.690;2022-10-17T17:22:40;0.30;;;0.30;;
22907;SDS011;11620;50.050;8.690;2022-10-17T17:25:26;0.40;;;0.40;;
22907;SDS011;11620;50.050;8.690;2022-10-17T17:28:12;0.40;;;0.40;;
22907;SDS011;11620;50.050;8.690;2022-10-17T17:30:59;0.40;;;0.40;;
22907;SDS011;11620;50.050;8.690;2022-10-17T17:33:46;0.35;;;0.35;;
22907;SDS011;11620;50.050;8.690;2022-10-17T17:36:34;0.40;;;0.40;;
22907;SDS011;11620;50.050;8.690;2022-10-17T17:39:21;0.40;;;0.40;;
22907;SDS011;11620;50.050;8.690;2022-10-17T17:42:07;0.60;;;0.60;;
22907;SDS011;11620;50.050;8.690;2022-10-17T17:44:54;0.38;;;0.38;;
22907;SDS011;11620;50.050;8.690;2022-10-17T17:47:40;0.38;;;0.38;;
22907;SDS011;11620;50.050;8.690;2022-10-17T17:50:26;0.47;;;0.47;;
22907;SDS011;11620;50.050;8.690;2022-10-17T17:53:14;0.50;;;0.50;;
22907;SDS011;11620;50.050;8.690;2022-10-17T17:56:06;0.40;;;0.40;;
22907;SDS011;11620;50.050;8.690;2022-10-17T17:58:56;0.38;;;0.38;;
22907;SDS011;11620;50.050;8.690;2022-10-17T18:01:44;0.40;;;0.40;;
22907;SDS011;11620;50.050;8.690;2022-10-17T18:04:30;0.40;;;0.40;;
22907;SDS011;11620;50.050;8.690;2022-10-17T18:07:17;0.30;;;0.30;;
22907;SDS011;11620;50.050;8.690;2022-10-17T18:10:03;0.30;;;0.30;;
22907;SDS011;11620;50.050;8.690;2022-10-17T18:12:51;0.40;;;0.40;;
22907;SDS011;11620;50.050;8.690;2022-10-17T18:15:39;0.40;;;0.40;;
22907;SDS011;11620;50.050;8.690;2022-10-17T18:18:27;0.30;;;0.30;;
22907;SDS011;11620;50.050;8.690;2022-10-17T18:21:15;0.40;;;0.40;;
22907;SDS011;11620;50.050;8.690;2022-10-17T18:24:01;0.43;;;0.43;;
22907;SDS011;11620;50.050;8.690;2022-10-17T18:26:49;0.40;;;0.40;;
22907;SDS011;11620;50.050;8.690;2022-10-17T18:29:38;0.47;;;0.47;;
22907;SDS011;11620;50.050;8.690;2022-10-17T18:32:24;0.40;;;0.40;;
22907;SDS011;11620;50.050;8.690;2022-10-17T18:35:11;0.40;;;0.40;;
22907;SDS011;11620;50.050;8.690;2022-10-17T18:37:57;0.40;;;0.40;;
22907;SDS011;11620;50.050;8.690;2022-10-17T18:40:43;0.40;;;0.40;;
22907;SDS011;11620;50.050;8.690;2022-10-17T18:43:34;0.40;;;0.40;;
22907;SDS011;11620;50.050;8.690;2022-10-17T18:46:22;0.40;;;0.40;;
22907;SDS011;11620;50.050;8.690;2022-10-17T18:49:11;0.35;;;0.35;;
22907;SDS011;11620;50.050;8.690;2022-10-17T18:51:59;0.40;;;0.40;;
22907;SDS011;11620;50.050;8.690;2022-10-17T18:54:45;0.40;;;0.40;;
22907;SDS011;11620;50.050;8.690;2022-10-17T18:57:32;0.38;;;0.38;;
22907;SDS011;11620;50.050;8.690;2022-10-17T19:00:18;0.40;;;0.40;;